sensor_id;sensor_type;location;lat;lon;timestamp;temperature;humidity
21608;DHT22;10966;51.076;3.782;2022-07-10T00:00:32;16.80;99.90
21608;DHT22;10966;51.076;3.782;2022-07-10T00:02:58;16.80;99.90
21608;DHT22;10966;51.076;3.782;2022-07-10T00:05:24;17.00;99.90
21608;DHT22;10966;51.076;3.782;2022-07-10T00:07:50;17.10;99.90
21608;DHT22;10966;51.076;3.782;2022-07-10T00:10:17;17.00;99.90
21608;DHT22;10966;51.076;3.782;2022-07-10T00:12:45;17.00;99.90
21608;DHT22;10966;51.076;3.782;2022-07-10T00:15:15;16.90;99.90
21608;DHT22;10966;51.076;3.782;2022-07-10T00:17:42;17.00;99.90
21608;DHT22;10966;51.076;3.782;2022-07-10T00:20:09;16.90;99.90
21608;DHT22;10966;51.076;3.782;2022-07-10T00:22:36;16.80;99.90
21608;DHT22;10966;51.076;3.782;2022-07-10T00:25:02;16.90;99.90
21608;DHT22;10966;51.076;3.782;2022-07-10T00:27:29;16.90;99.90
21608;DHT22;10966;51.076;3.782;2022-07-10T00:29:54;16.90;99.90
21608;DHT22;10966;51.076;3.782;2022-07-10T00:32:20;16.90;99.90
21608;DHT22;10966;51.076;3.782;2022-07-10T00:34:45;16.90;99.90
21608;DHT22;10966;51.076;3.782;2022-07-10T00:37:11;17.10;99.90
21608;DHT22;10966;51.076;3.782;2022-07-10T00:39:37;17.10;99.90
21608;DHT22;10966;51.076;3.782;2022-07-10T00:42:10;17.10;99.90
21608;DHT22;10966;51.076;3.782;2022-07-10T00:44:37;17.30;99.90
21608;DHT22;10966;51.076;3.782;2022-07-10T00:47:04;17.50;99.90
21608;DHT22;10966;51.076;3.782;2022-07-10T00:49:31;17.00;99.90
21608;DHT22;10966;51.076;3.782;2022-07-10T00:52:00;16.80;99.90
21608;DHT22;10966;51.076;3.782;2022-07-10T00:54:28;17.00;99.90
21608;DHT22;10966;51.076;3.782;2022-07-10T00:56:54;16.90;99.90
21608;DHT22;10966;51.076;3.782;2022-07-10T00:59:21;16.90;99.90
21608;DHT22;10966;51.076;3.782;2022-07-10T01:01:49;16.70;99.90
21608;DHT22;10966;51.076;3.782;2022-07-10T01:04:15;16.70;99.90
21608;DHT22;10966;51.076;3.782;2022-07-10T01:06:40;16.60;99.90
21608;DHT22;10966;51.076;3.782;2022-07-10T01:09:06;16.60;99.90
21608;DHT22;10966;51.076;3.782;2022-07-10T01:11:33;16.60;99.90
21608;DHT22;10966;51.076;3.782;2022-07-10T01:14:00;16.60;99.90
21608;DHT22;10966;51.076;3.782;2022-07-10T01:16:26;16.50;99.90
21608;DHT22;10966;51.076;3.782;2022-07-10T01:18:52;16.60;99.90
21608;DHT22;10966;51.076;3.782;2022-07-10T01:21:25;16.60;99.90
21608;DHT22;10966;51.076;3.782;2022-07-10T01:23:51;16.50;99.90
21608;DHT22;10966;51.076;3.782;2022-07-10T01:26:17;16.50;99.90
21608;DHT22;10966;51.076;3.782;2022-07-10T01:28:43;16.30;99.90
21608;DHT22;10966;51.076;3.782;2022-07-10T01:31:09;16.50;99.90
21608;DHT22;10966;51.076;3.782;2022-07-10T01:33:34;16.50;99.90
21608;DHT22;10966;51.076;3.782;2022-07-10T01:36:00;16.50;99.90
21608;DHT22;10966;51.076;3.782;2022-07-10T01:38:25;16.40;99.90
21608;DHT22;10966;51.076;3.782;2022-07-10T01:40:51;16.30;99.90
21608;DHT22;10966;51.076;3.782;2022-07-10T01:43:20;16.20;99.90
21608;DHT22;10966;51.076;3.782;2022-07-10T01:45:45;16.20;99.90
21608;DHT22;10966;51.076;3.782;2022-07-10T01:48:14;16.10;99.90
21608;DHT22;10966;51.076;3.782;2022-07-10T01:50:40;16.00;99.90
21608;DHT22;10966;51.076;3.782;2022-07-10T01:53:06;16.10;99.90
21608;DHT22;10966;51.076;3.782;2022-07-10T01:55:32;16.10;99.90
21608;DHT22;10966;51.076;3.782;2022-07-10T01:57:57;16.10;99.90
21608;DHT22;10966;51.076;3.782;2022-07-10T02:00:23;16.10;99.90
21608;DHT22;10966;51.076;3.782;2022-07-10T02:02:49;16.10;99.90
21608;DHT22;10966;51.076;3.782;2022-07-10T02:05:33;16.20;99.90
21608;DHT22;10966;51.076;3.782;2022-07-10T02:07:59;16.20;99.90
21608;DHT22;10966;51.076;3.782;2022-07-10T02:10:25;16.00;99.90
21608;DHT22;10966;51.076;3.782;2022-07-10T02:12:50;15.90;99.90
21608;DHT22;10966;51.076;3.782;2022-07-10T02:15:16;15.90;99.90
21608;DHT22;10966;51.076;3.782;2022-07-10T02:17:41;15.80;99.90
21608;DHT22;10966;51.076;3.782;2022-07-10T02:20:08;15.70;99.90
21608;DHT22;10966;51.076;3.782;2022-07-10T02:22:36;15.70;99.90
21608;DHT22;10966;51.076;3.782;2022-07-10T02:25:02;15.50;99.90
21608;DHT22;10966;51.076;3.782;2022-07-10T02:27:27;15.60;99.90
21608;DHT22;10966;51.076;3.782;2022-07-10T02:29:55;15.50;99.90
21608;DHT22;10966;51.076;3.782;2022-07-10T02:32:21;15.50;99.90
21608;DHT22;10966;51.076;3.782;2022-07-10T02:34:47;15.50;99.90
21608;DHT22;10966;51.076;3.782;2022-07-10T02:37:13;15.50;99.90
21608;DHT22;10966;51.076;3.782;2022-07-10T02:39:38;15.50;99.90
21608;DHT22;10966;51.076;3.782;2022-07-10T02:42:04;15.50;99.90
21608;DHT22;10966;51.076;3.782;2022-07-10T02:44:30;15.50;99.90
21608;DHT22;10966;51.076;3.782;2022-07-10T02:46:55;15.40;99.90
21608;DHT22;10966;51.076;3.782;2022-07-10T02:49:21;15.40;99.90
21608;DHT22;10966;51.076;3.782;2022-07-10T02:51:47;15.40;99.90
21608;DHT22;10966;51.076;3.782;2022-07-10T02:54:12;15.50;99.90
21608;DHT22;10966;51.076;3.782;2022-07-10T02:56:38;15.40;99.90
21608;DHT22;10966;51.076;3.782;2022-07-10T02:59:05;15.40;99.90
21608;DHT22;10966;51.076;3.782;2022-07-10T03:01:31;15.30;99.90
21608;DHT22;10966;51.076;3.782;2022-07-10T03:03:57;15.30;99.90
21608;DHT22;10966;51.076;3.782;2022-07-10T03:06:23;15.40;99.90
21608;DHT22;10966;51.076;3.782;2022-07-10T03:08:49;15.40;99.90
21608;DHT22;10966;51.076;3.782;2022-07-10T03:11:14;15.30;99.90
21608;DHT22;10966;51.076;3.782;2022-07-10T03:13:40;15.20;99.90
21608;DHT22;10966;51.076;3.782;2022-07-10T03:16:06;15.30;99.90
21608;DHT22;10966;51.076;3.782;2022-07-10T03:18:32;15.30;99.90
21608;DHT22;10966;51.076;3.782;2022-07-10T03:20:57;15.40;99.90
21608;DHT22;10966;51.076;3.782;2022-07-10T03:23:23;15.40;99.90
21608;DHT22;10966;51.076;3.782;2022-07-10T03:25:49;15.30;99.90
21608;DHT22;10966;51.076;3.782;2022-07-10T03:28:14;15.30;99.90
21608;DHT22;10966;51.076;3.782;2022-07-10T03:30:40;15.20;99.90
21608;DHT22;10966;51.076;3.782;2022-07-10T03:33:05;15.40;99.90
21608;DHT22;10966;51.076;3.782;2022-07-10T03:35:31;15.30;99.90
21608;DHT22;10966;51.076;3.782;2022-07-10T03:37:57;15.10;99.90
21608;DHT22;10966;51.076;3.782;2022-07-10T03:40:23;15.10;99.90
21608;DHT22;10966;51.076;3.782;2022-07-10T03:42:49;15.10;99.90
21608;DHT22;10966;51.076;3.782;2022-07-10T03:45:15;15.10;99.90
21608;DHT22;10966;51.076;3.782;2022-07-10T03:47:40;15.20;99.90
21608;DHT22;10966;51.076;3.782;2022-07-10T03:50:06;15.30;99.90
21608;DHT22;10966;51.076;3.782;2022-07-10T03:52:32;15.50;99.90
21608;DHT22;10966;51.076;3.782;2022-07-10T03:54:58;15.40;99.90
21608;DHT22;10966;51.076;3.782;2022-07-10T03:57:23;15.10;99.90
21608;DHT22;10966;51.076;3.782;2022-07-10T04:00:08;15.30;99.90
21608;DHT22;10966;51.076;3.782;2022-07-10T04:02:33;15.30;99.90
21608;DHT22;10966;51.076;3.782;2022-07-10T04:04:59;15.10;99.90
21608;DHT22;10966;51.076;3.782;2022-07-10T04:07:25;15.20;99.90
21608;DHT22;10966;51.076;3.782;2022-07-10T04:09:50;15.10;99.90
21608;DHT22;10966;51.076;3.782;2022-07-10T04:12:16;15.00;99.90
21608;DHT22;10966;51.076;3.782;2022-07-10T04:14:42;15.10;99.90
21608;DHT22;10966;51.076;3.782;2022-07-10T04:17:07;15.30;99.90
21608;DHT22;10966;51.076;3.782;2022-07-10T04:19:34;15.50;99.90
21608;DHT22;10966;51.076;3.782;2022-07-10T04:21:59;15.50;99.90
21608;DHT22;10966;51.076;3.782;2022-07-10T04:24:25;15.50;99.90
21608;DHT22;10966;51.076;3.782;2022-07-10T04:26:51;15.60;99.90
21608;DHT22;10966;51.076;3.782;2022-07-10T04:29:16;15.60;99.90
21608;DHT22;10966;51.076;3.782;2022-07-10T04:31:42;15.50;99.90
21608;DHT22;10966;51.076;3.782;2022-07-10T04:34:08;15.60;99.90
21608;DHT22;10966;51.076;3.782;2022-07-10T04:36:33;15.60;99.90
21608;DHT22;10966;51.076;3.782;2022-07-10T04:38:59;15.60;99.90
21608;DHT22;10966;51.076;3.782;2022-07-10T04:41:24;15.80;99.90
21608;DHT22;10966;51.076;3.782;2022-07-10T04:43:50;15.80;99.90
21608;DHT22;10966;51.076;3.782;2022-07-10T04:46:16;16.00;99.90
21608;DHT22;10966;51.076;3.782;2022-07-10T04:48:42;15.90;99.90
21608;DHT22;10966;51.076;3.782;2022-07-10T04:51:07;16.00;99.90
21608;DHT22;10966;51.076;3.782;2022-07-10T04:53:34;16.10;99.90
21608;DHT22;10966;51.076;3.782;2022-07-10T04:56:00;16.10;99.90
21608;DHT22;10966;51.076;3.782;2022-07-10T04:58:27;16.10;99.90
21608;DHT22;10966;51.076;3.782;2022-07-10T05:00:53;16.20;99.90
21608;DHT22;10966;51.076;3.782;2022-07-10T05:03:18;16.30;99.90
21608;DHT22;10966;51.076;3.782;2022-07-10T05:05:44;16.40;99.90
21608;DHT22;10966;51.076;3.782;2022-07-10T05:08:09;16.50;99.90
21608;DHT22;10966;51.076;3.782;2022-07-10T05:10:35;16.70;99.90
21608;DHT22;10966;51.076;3.782;2022-07-10T05:13:01;16.80;99.90
21608;DHT22;10966;51.076;3.782;2022-07-10T05:15:27;16.90;99.90
21608;DHT22;10966;51.076;3.782;2022-07-10T05:17:53;16.90;99.90
21608;DHT22;10966;51.076;3.782;2022-07-10T05:20:18;17.20;99.90
21608;DHT22;10966;51.076;3.782;2022-07-10T05:22:44;17.40;99.90
21608;DHT22;10966;51.076;3.782;2022-07-10T05:25:09;17.30;99.90
21608;DHT22;10966;51.076;3.782;2022-07-10T05:27:35;17.40;99.90
21608;DHT22;10966;51.076;3.782;2022-07-10T05:30:01;17.30;99.90
21608;DHT22;10966;51.076;3.782;2022-07-10T05:32:26;17.30;99.90
21608;DHT22;10966;51.076;3.782;2022-07-10T05:34:52;17.30;99.90
21608;DHT22;10966;51.076;3.782;2022-07-10T05:37:18;17.20;99.90
21608;DHT22;10966;51.076;3.782;2022-07-10T05:39:43;16.90;99.90
21608;DHT22;10966;51.076;3.782;2022-07-10T05:42:09;16.80;99.90
21608;DHT22;10966;51.076;3.782;2022-07-10T05:44:35;16.80;99.90
21608;DHT22;10966;51.076;3.782;2022-07-10T05:47:01;17.00;99.90
21608;DHT22;10966;51.076;3.782;2022-07-10T05:49:27;17.10;99.90
21608;DHT22;10966;51.076;3.782;2022-07-10T05:51:52;17.00;99.90
21608;DHT22;10966;51.076;3.782;2022-07-10T05:54:18;17.20;99.90
21608;DHT22;10966;51.076;3.782;2022-07-10T05:56:43;17.90;99.90
21608;DHT22;10966;51.076;3.782;2022-07-10T05:59:13;18.00;99.90
21608;DHT22;10966;51.076;3.782;2022-07-10T06:01:40;18.10;99.90
21608;DHT22;10966;51.076;3.782;2022-07-10T06:04:05;18.00;99.90
21608;DHT22;10966;51.076;3.782;2022-07-10T06:06:31;18.20;99.90
21608;DHT22;10966;51.076;3.782;2022-07-10T06:08:57;18.20;99.90
21608;DHT22;10966;51.076;3.782;2022-07-10T06:11:24;18.50;99.90
21608;DHT22;10966;51.076;3.782;2022-07-10T06:13:50;18.50;99.90
21608;DHT22;10966;51.076;3.782;2022-07-10T06:16:16;18.50;99.90
21608;DHT22;10966;51.076;3.782;2022-07-10T06:18:41;18.40;99.90
21608;DHT22;10966;51.076;3.782;2022-07-10T06:21:07;18.40;99.90
21608;DHT22;10966;51.076;3.782;2022-07-10T06:23:34;18.30;99.90
21608;DHT22;10966;51.076;3.782;2022-07-10T06:25:59;17.70;99.90
21608;DHT22;10966;51.076;3.782;2022-07-10T06:28:25;17.80;99.90
21608;DHT22;10966;51.076;3.782;2022-07-10T06:30:51;18.00;99.90
21608;DHT22;10966;51.076;3.782;2022-07-10T06:33:17;18.30;99.90
21608;DHT22;10966;51.076;3.782;2022-07-10T06:35:43;18.30;99.90
21608;DHT22;10966;51.076;3.782;2022-07-10T06:38:08;18.20;99.90
21608;DHT22;10966;51.076;3.782;2022-07-10T06:40:37;18.20;99.90
21608;DHT22;10966;51.076;3.782;2022-07-10T06:43:03;18.20;99.90
21608;DHT22;10966;51.076;3.782;2022-07-10T06:45:29;18.10;99.90
21608;DHT22;10966;51.076;3.782;2022-07-10T06:47:55;18.00;99.90
21608;DHT22;10966;51.076;3.782;2022-07-10T06:50:21;18.10;99.90
21608;DHT22;10966;51.076;3.782;2022-07-10T06:52:48;18.40;99.90
21608;DHT22;10966;51.076;3.782;2022-07-10T06:55:18;18.50;99.90
21608;DHT22;10966;51.076;3.782;2022-07-10T06:57:45;18.60;99.90
21608;DHT22;10966;51.076;3.782;2022-07-10T07:00:11;18.90;99.90
21608;DHT22;10966;51.076;3.782;2022-07-10T07:02:37;18.90;99.90
21608;DHT22;10966;51.076;3.782;2022-07-10T07:05:04;18.60;99.90
21608;DHT22;10966;51.076;3.782;2022-07-10T07:07:30;18.70;99.90
21608;DHT22;10966;51.076;3.782;2022-07-10T07:09:56;18.60;99.90
21608;DHT22;10966;51.076;3.782;2022-07-10T07:12:21;18.80;99.90
21608;DHT22;10966;51.076;3.782;2022-07-10T07:14:47;18.50;99.90
21608;DHT22;10966;51.076;3.782;2022-07-10T07:17:13;18.60;99.90
21608;DHT22;10966;51.076;3.782;2022-07-10T07:19:40;18.40;99.90
21608;DHT22;10966;51.076;3.782;2022-07-10T07:22:25;19.00;99.90
21608;DHT22;10966;51.076;3.782;2022-07-10T07:25:10;19.20;99.90
21608;DHT22;10966;51.076;3.782;2022-07-10T07:27:38;19.40;99.90
21608;DHT22;10966;51.076;3.782;2022-07-10T07:30:12;19.30;99.90
21608;DHT22;10966;51.076;3.782;2022-07-10T07:32:44;19.30;99.90
21608;DHT22;10966;51.076;3.782;2022-07-10T07:35:10;19.10;99.90
21608;DHT22;10966;51.076;3.782;2022-07-10T07:37:42;18.80;99.90
21608;DHT22;10966;51.076;3.782;2022-07-10T07:40:10;18.60;99.90
21608;DHT22;10966;51.076;3.782;2022-07-10T07:42:36;18.50;99.90
21608;DHT22;10966;51.076;3.782;2022-07-10T07:45:02;18.40;99.90
21608;DHT22;10966;51.076;3.782;2022-07-10T07:47:30;18.70;99.90
21608;DHT22;10966;51.076;3.782;2022-07-10T07:49:56;19.20;99.90
21608;DHT22;10966;51.076;3.782;2022-07-10T07:52:21;19.40;99.90
21608;DHT22;10966;51.076;3.782;2022-07-10T07:54:48;19.80;99.90
21608;DHT22;10966;51.076;3.782;2022-07-10T07:57:14;19.80;99.90
21608;DHT22;10966;51.076;3.782;2022-07-10T07:59:40;19.90;99.90
21608;DHT22;10966;51.076;3.782;2022-07-10T08:02:06;20.20;99.90
21608;DHT22;10966;51.076;3.782;2022-07-10T08:04:32;20.10;99.90
21608;DHT22;10966;51.076;3.782;2022-07-10T08:06:58;20.00;99.90
21608;DHT22;10966;51.076;3.782;2022-07-10T08:09:23;20.20;99.90
21608;DHT22;10966;51.076;3.782;2022-07-10T08:11:49;20.50;99.90
21608;DHT22;10966;51.076;3.782;2022-07-10T08:14:15;20.80;99.90
21608;DHT22;10966;51.076;3.782;2022-07-10T08:16:40;20.90;99.90
21608;DHT22;10966;51.076;3.782;2022-07-10T08:19:07;20.90;99.90
21608;DHT22;10966;51.076;3.782;2022-07-10T08:21:32;20.40;99.90
21608;DHT22;10966;51.076;3.782;2022-07-10T08:23:59;20.70;99.90
21608;DHT22;10966;51.076;3.782;2022-07-10T08:26:25;21.10;99.90
21608;DHT22;10966;51.076;3.782;2022-07-10T08:28:51;21.00;99.90
21608;DHT22;10966;51.076;3.782;2022-07-10T08:31:16;21.10;99.90
21608;DHT22;10966;51.076;3.782;2022-07-10T08:33:42;21.30;99.90
21608;DHT22;10966;51.076;3.782;2022-07-10T08:36:08;21.60;99.90
21608;DHT22;10966;51.076;3.782;2022-07-10T08:38:33;21.50;99.90
21608;DHT22;10966;51.076;3.782;2022-07-10T08:41:00;21.40;99.90
21608;DHT22;10966;51.076;3.782;2022-07-10T08:43:28;21.80;99.90
21608;DHT22;10966;51.076;3.782;2022-07-10T08:45:54;21.80;99.90
21608;DHT22;10966;51.076;3.782;2022-07-10T08:48:23;21.30;99.90
21608;DHT22;10966;51.076;3.782;2022-07-10T08:50:52;21.00;99.90
21608;DHT22;10966;51.076;3.782;2022-07-10T08:53:25;20.70;99.90
21608;DHT22;10966;51.076;3.782;2022-07-10T08:55:54;21.30;99.90
21608;DHT22;10966;51.076;3.782;2022-07-10T08:58:20;21.40;99.90
21608;DHT22;10966;51.076;3.782;2022-07-10T09:00:47;22.30;99.90
21608;DHT22;10966;51.076;3.782;2022-07-10T09:03:12;22.90;99.90
21608;DHT22;10966;51.076;3.782;2022-07-10T09:05:38;22.50;99.90
21608;DHT22;10966;51.076;3.782;2022-07-10T09:08:04;22.20;99.90
21608;DHT22;10966;51.076;3.782;2022-07-10T09:10:30;22.60;99.90
21608;DHT22;10966;51.076;3.782;2022-07-10T09:15:27;23.10;99.90
21608;DHT22;10966;51.076;3.782;2022-07-10T09:17:56;23.10;99.90
21608;DHT22;10966;51.076;3.782;2022-07-10T09:20:37;23.40;99.90
21608;DHT22;10966;51.076;3.782;2022-07-10T09:23:23;23.90;99.90
21608;DHT22;10966;51.076;3.782;2022-07-10T09:25:52;24.50;99.90
21608;DHT22;10966;51.076;3.782;2022-07-10T09:28:19;24.30;99.90
21608;DHT22;10966;51.076;3.782;2022-07-10T09:30:46;23.00;99.90
21608;DHT22;10966;51.076;3.782;2022-07-10T09:43:53;22.50;99.90
21608;DHT22;10966;51.076;3.782;2022-07-10T09:46:20;23.40;99.90
21608;DHT22;10966;51.076;3.782;2022-07-10T09:48:47;23.30;99.90
21608;DHT22;10966;51.076;3.782;2022-07-10T09:51:13;24.00;99.90
21608;DHT22;10966;51.076;3.782;2022-07-10T09:53:41;23.50;99.90
21608;DHT22;10966;51.076;3.782;2022-07-10T09:56:11;23.60;99.90
21608;DHT22;10966;51.076;3.782;2022-07-10T09:58:38;24.40;99.90
21608;DHT22;10966;51.076;3.782;2022-07-10T10:01:05;24.90;99.90
21608;DHT22;10966;51.076;3.782;2022-07-10T10:03:34;24.60;99.90
21608;DHT22;10966;51.076;3.782;2022-07-10T10:06:24;24.30;99.90
21608;DHT22;10966;51.076;3.782;2022-07-10T10:09:05;24.50;99.90
21608;DHT22;10966;51.076;3.782;2022-07-10T10:11:35;24.90;99.90
21608;DHT22;10966;51.076;3.782;2022-07-10T10:14:02;25.20;99.90
21608;DHT22;10966;51.076;3.782;2022-07-10T10:16:29;25.20;99.90
21608;DHT22;10966;51.076;3.782;2022-07-10T10:18:55;24.90;99.90
21608;DHT22;10966;51.076;3.782;2022-07-10T10:22:01;24.90;99.90
21608;DHT22;10966;51.076;3.782;2022-07-10T10:24:31;24.50;99.90
21608;DHT22;10966;51.076;3.782;2022-07-10T10:27:01;25.10;99.90
21608;DHT22;10966;51.076;3.782;2022-07-10T10:29:27;25.60;99.90
21608;DHT22;10966;51.076;3.782;2022-07-10T10:31:53;25.70;99.90
21608;DHT22;10966;51.076;3.782;2022-07-10T10:34:39;26.10;99.90
21608;DHT22;10966;51.076;3.782;2022-07-10T10:39:54;25.60;99.90
21608;DHT22;10966;51.076;3.782;2022-07-10T10:42:39;24.90;99.90
21608;DHT22;10966;51.076;3.782;2022-07-10T10:45:24;25.10;99.90
21608;DHT22;10966;51.076;3.782;2022-07-10T10:48:12;24.80;99.90
21608;DHT22;10966;51.076;3.782;2022-07-10T10:50:45;24.80;99.90
21608;DHT22;10966;51.076;3.782;2022-07-10T10:53:24;24.90;99.90
21608;DHT22;10966;51.076;3.782;2022-07-10T10:58:40;24.80;99.90
21608;DHT22;10966;51.076;3.782;2022-07-10T11:01:28;24.80;99.90
21608;DHT22;10966;51.076;3.782;2022-07-10T11:06:48;25.50;99.90
21608;DHT22;10966;51.076;3.782;2022-07-10T11:09:41;26.20;99.90
21608;DHT22;10966;51.076;3.782;2022-07-10T11:12:08;26.00;99.90
21608;DHT22;10966;51.076;3.782;2022-07-10T11:14:38;25.90;99.90
21608;DHT22;10966;51.076;3.782;2022-07-10T11:17:05;26.10;99.90
21608;DHT22;10966;51.076;3.782;2022-07-10T11:19:32;25.70;99.90
21608;DHT22;10966;51.076;3.782;2022-07-10T11:22:40;25.10;99.90
21608;DHT22;10966;51.076;3.782;2022-07-10T11:28:07;25.60;99.90
21608;DHT22;10966;51.076;3.782;2022-07-10T11:30:49;25.50;99.90
21608;DHT22;10966;51.076;3.782;2022-07-10T11:33:15;25.50;99.90
21608;DHT22;10966;51.076;3.782;2022-07-10T11:35:44;25.70;99.90
21608;DHT22;10966;51.076;3.782;2022-07-10T11:38:21;25.90;99.90
21608;DHT22;10966;51.076;3.782;2022-07-10T11:40:47;25.90;99.90
21608;DHT22;10966;51.076;3.782;2022-07-10T11:43:13;25.90;99.90
21608;DHT22;10966;51.076;3.782;2022-07-10T11:45:43;25.50;99.90
21608;DHT22;10966;51.076;3.782;2022-07-10T11:48:20;25.60;99.90
21608;DHT22;10966;51.076;3.782;2022-07-10T11:50:46;25.30;99.90
21608;DHT22;10966;51.076;3.782;2022-07-10T11:53:13;24.60;99.90
21608;DHT22;10966;51.076;3.782;2022-07-10T11:55:39;25.20;99.90
21608;DHT22;10966;51.076;3.782;2022-07-10T11:58:19;25.80;99.90
21608;DHT22;10966;51.076;3.782;2022-07-10T12:01:05;26.00;99.90
21608;DHT22;10966;51.076;3.782;2022-07-10T12:03:33;26.10;99.90
21608;DHT22;10966;51.076;3.782;2022-07-10T12:06:04;25.00;99.90
21608;DHT22;10966;51.076;3.782;2022-07-10T12:08:45;24.90;99.90
21608;DHT22;10966;51.076;3.782;2022-07-10T12:11:12;24.90;99.90
21608;DHT22;10966;51.076;3.782;2022-07-10T12:13:38;24.60;99.90
21608;DHT22;10966;51.076;3.782;2022-07-10T12:16:04;25.40;99.90
21608;DHT22;10966;51.076;3.782;2022-07-10T12:18:30;26.20;99.90
21608;DHT22;10966;51.076;3.782;2022-07-10T12:20:58;26.20;99.90
21608;DHT22;10966;51.076;3.782;2022-07-10T12:23:25;25.80;99.90
21608;DHT22;10966;51.076;3.782;2022-07-10T12:25:51;25.40;99.90
21608;DHT22;10966;51.076;3.782;2022-07-10T12:28:17;25.20;99.90
21608;DHT22;10966;51.076;3.782;2022-07-10T12:30:47;26.20;99.90
21608;DHT22;10966;51.076;3.782;2022-07-10T12:33:22;25.80;99.90
21608;DHT22;10966;51.076;3.782;2022-07-10T12:38:27;25.80;99.90
21608;DHT22;10966;51.076;3.782;2022-07-10T12:41:10;25.60;99.90
21608;DHT22;10966;51.076;3.782;2022-07-10T12:43:36;26.20;99.90
21608;DHT22;10966;51.076;3.782;2022-07-10T12:46:19;26.70;99.90
21608;DHT22;10966;51.076;3.782;2022-07-10T12:49:08;26.70;99.90
21608;DHT22;10966;51.076;3.782;2022-07-10T12:51:47;26.50;99.90
21608;DHT22;10966;51.076;3.782;2022-07-10T12:54:35;26.10;99.90
21608;DHT22;10966;51.076;3.782;2022-07-10T12:57:02;25.50;99.90
21608;DHT22;10966;51.076;3.782;2022-07-10T12:59:36;25.20;99.90
21608;DHT22;10966;51.076;3.782;2022-07-10T13:02:18;25.10;99.90
21608;DHT22;10966;51.076;3.782;2022-07-10T13:04:54;25.20;99.90
21608;DHT22;10966;51.076;3.782;2022-07-10T13:07:31;24.60;99.90
21608;DHT22;10966;51.076;3.782;2022-07-10T13:10:02;24.20;99.90
21608;DHT22;10966;51.076;3.782;2022-07-10T13:12:28;24.50;99.90
21608;DHT22;10966;51.076;3.782;2022-07-10T13:14:54;24.90;99.90
21608;DHT22;10966;51.076;3.782;2022-07-10T13:17:19;26.00;99.90
21608;DHT22;10966;51.076;3.782;2022-07-10T13:19:45;27.80;99.90
21608;DHT22;10966;51.076;3.782;2022-07-10T13:22:12;28.90;99.90
21608;DHT22;10966;51.076;3.782;2022-07-10T13:24:37;29.80;99.90
21608;DHT22;10966;51.076;3.782;2022-07-10T13:27:03;29.70;99.90
21608;DHT22;10966;51.076;3.782;2022-07-10T13:29:29;29.00;99.90
21608;DHT22;10966;51.076;3.782;2022-07-10T13:31:55;28.80;99.90
21608;DHT22;10966;51.076;3.782;2022-07-10T13:34:20;29.20;99.90
21608;DHT22;10966;51.076;3.782;2022-07-10T13:36:46;29.50;99.90
21608;DHT22;10966;51.076;3.782;2022-07-10T13:39:12;30.60;99.60
21608;DHT22;10966;51.076;3.782;2022-07-10T13:41:37;30.60;98.50
21608;DHT22;10966;51.076;3.782;2022-07-10T13:44:03;31.30;97.50
21608;DHT22;10966;51.076;3.782;2022-07-10T13:46:29;32.40;95.60
21608;DHT22;10966;51.076;3.782;2022-07-10T13:48:54;31.50;95.20
21608;DHT22;10966;51.076;3.782;2022-07-10T13:51:20;32.00;94.70
21608;DHT22;10966;51.076;3.782;2022-07-10T13:53:46;33.40;92.80
21608;DHT22;10966;51.076;3.782;2022-07-10T13:56:13;32.80;91.00
21608;DHT22;10966;51.076;3.782;2022-07-10T13:58:39;31.90;91.70
21608;DHT22;10966;51.076;3.782;2022-07-10T14:01:05;31.10;93.20
21608;DHT22;10966;51.076;3.782;2022-07-10T14:03:31;30.90;92.90
21608;DHT22;10966;51.076;3.782;2022-07-10T14:05:57;31.70;91.70
21608;DHT22;10966;51.076;3.782;2022-07-10T14:08:23;31.70;91.90
21608;DHT22;10966;51.076;3.782;2022-07-10T14:10:49;31.80;91.60
21608;DHT22;10966;51.076;3.782;2022-07-10T14:13:15;32.00;91.00
21608;DHT22;10966;51.076;3.782;2022-07-10T14:15:42;31.00;91.80
21608;DHT22;10966;51.076;3.782;2022-07-10T14:18:11;30.90;91.60
21608;DHT22;10966;51.076;3.782;2022-07-10T14:20:37;31.40;90.60
21608;DHT22;10966;51.076;3.782;2022-07-10T14:23:22;32.60;88.10
21608;DHT22;10966;51.076;3.782;2022-07-10T14:25:47;33.20;85.20
21608;DHT22;10966;51.076;3.782;2022-07-10T14:28:13;33.70;82.80
21608;DHT22;10966;51.076;3.782;2022-07-10T14:30:42;32.60;82.20
21608;DHT22;10966;51.076;3.782;2022-07-10T14:33:08;32.40;83.60
21608;DHT22;10966;51.076;3.782;2022-07-10T14:35:34;32.40;82.40
21608;DHT22;10966;51.076;3.782;2022-07-10T14:38:00;32.10;83.40
21608;DHT22;10966;51.076;3.782;2022-07-10T14:40:26;33.10;81.00
21608;DHT22;10966;51.076;3.782;2022-07-10T14:42:51;33.40;79.10
21608;DHT22;10966;51.076;3.782;2022-07-10T14:45:17;32.60;80.20
21608;DHT22;10966;51.076;3.782;2022-07-10T14:47:42;30.50;83.50
21608;DHT22;10966;51.076;3.782;2022-07-10T14:50:08;31.50;84.00
21608;DHT22;10966;51.076;3.782;2022-07-10T14:52:34;32.20;80.90
21608;DHT22;10966;51.076;3.782;2022-07-10T14:55:02;32.80;80.00
21608;DHT22;10966;51.076;3.782;2022-07-10T14:57:28;33.20;78.00
21608;DHT22;10966;51.076;3.782;2022-07-10T14:59:54;30.60;82.80
21608;DHT22;10966;51.076;3.782;2022-07-10T15:02:19;32.20;80.70
21608;DHT22;10966;51.076;3.782;2022-07-10T15:04:45;33.40;77.20
21608;DHT22;10966;51.076;3.782;2022-07-10T15:07:10;33.30;75.40
21608;DHT22;10966;51.076;3.782;2022-07-10T15:09:36;33.80;74.00
21608;DHT22;10966;51.076;3.782;2022-07-10T15:12:02;33.70;73.30
21608;DHT22;10966;51.076;3.782;2022-07-10T15:14:28;33.90;72.80
21608;DHT22;10966;51.076;3.782;2022-07-10T15:16:55;33.60;72.50
21608;DHT22;10966;51.076;3.782;2022-07-10T15:19:20;32.60;74.60
21608;DHT22;10966;51.076;3.782;2022-07-10T15:21:46;33.70;71.90
21608;DHT22;10966;51.076;3.782;2022-07-10T15:24:12;34.00;71.30
21608;DHT22;10966;51.076;3.782;2022-07-10T15:26:37;34.40;69.40
21608;DHT22;10966;51.076;3.782;2022-07-10T15:29:03;34.20;70.60
21608;DHT22;10966;51.076;3.782;2022-07-10T15:31:29;33.40;69.90
21608;DHT22;10966;51.076;3.782;2022-07-10T15:33:55;33.60;69.30
21608;DHT22;10966;51.076;3.782;2022-07-10T15:36:20;33.30;69.50
21608;DHT22;10966;51.076;3.782;2022-07-10T15:38:47;33.60;69.90
21608;DHT22;10966;51.076;3.782;2022-07-10T15:41:13;33.80;69.50
21608;DHT22;10966;51.076;3.782;2022-07-10T15:43:38;33.60;69.60
21608;DHT22;10966;51.076;3.782;2022-07-10T15:46:04;33.90;70.50
21608;DHT22;10966;51.076;3.782;2022-07-10T15:48:32;33.40;70.30
21608;DHT22;10966;51.076;3.782;2022-07-10T15:50:58;34.00;68.50
21608;DHT22;10966;51.076;3.782;2022-07-10T15:53:24;33.80;67.90
21608;DHT22;10966;51.076;3.782;2022-07-10T15:55:51;32.60;70.50
21608;DHT22;10966;51.076;3.782;2022-07-10T15:58:17;33.60;69.30
21608;DHT22;10966;51.076;3.782;2022-07-10T16:00:42;34.00;67.90